Terminal Aerodrome Forecast
Issued by NWS

Home | Current Version | Previous Version | Text Only | Print | Product List | Glossary On
Versions: 1 2 3 4 5 6 7 8 9 10 11 12 13 14 15 16 17 18
000
FTUS45 KBOU 221757
TAFBJC
TAF
KBJC 221757Z 2218/2318 09005KT P6SM FEW120
     FM222000 27010KT P6SM SCT090 BKN130
      TEMPO 2221/2301 VRB20G30KT -TSRA BKN090CB
     FM230100 23007KT P6SM SCT090 BKN130
     FM230800 VRB03KT P6SM SCT130=

USA.gov is the U.S. government's official web portal to all federal, state and local government web resources and services.